WetterOnline ( https://www.wetteronline.de )

Wetter aktuell Cuxhaven

Aktuelles Wetter: Heide/Elpersbüttel (5m)

6-stündlich | Neueste Meldungen
Ortszeit Temperatur Wetter
Mo, 27.06. 14:00 17.3° C bedeckt
Mo, 27.06. 8:00 14.2° C leichter Regen
Mo, 27.06. 2:00 16.1° C bewölkt
So, 26.06. 20:00 19.6° C bedeckt
So, 26.06. 14:00 20.9° C wolkig
So, 26.06. 8:00 20.8° C leicht bewölkt
So, 26.06. 2:00 17.9° C wolkig
Sa, 25.06. 20:00 23.1° C wolkig
Ortszeit Temperatur Wetter
Mo, 27.06. 19:00 15.2° C leichter Regen
Mo, 27.06. 18:50 15.2° C leichter Regen
Mo, 27.06. 18:40 15.1° C leichter Regen
Mo, 27.06. 18:30 15.4° C leichter Regen
Mo, 27.06. 18:20 15.4° C leichter Regen
Mo, 27.06. 18:10 15.5° C leichter Regen
Mo, 27.06. 18:00 15.4° C leichter Regen
Mo, 27.06. 17:30 15.9° C Sprühregen
Mo, 27.06. 17:00 16.0° C bedeckt
Mo, 27.06. 16:30 16.7° C bedeckt
Mo, 27.06. 16:00 16.7° C bedeckt
Ortszeit Relative Feuchte Sichtweite
Mo, 27.06. 14:00 89% 28 km
Mo, 27.06. 8:00 94% 26 km
Mo, 27.06. 2:00 87% 55 km
So, 26.06. 20:00 69% 60 km
So, 26.06. 14:00 79% 40 km
So, 26.06. 8:00 83% 29 km
So, 26.06. 2:00 92% 20 km
Sa, 25.06. 20:00 74% 45 km
Ortszeit Relative Feuchte Sichtweite
Mo, 27.06. 19:00 97% 20 km
Mo, 27.06. 18:50 97% -
Mo, 27.06. 18:40 97% -
Mo, 27.06. 18:30 97% 23 km
Mo, 27.06. 18:20 97% -
Mo, 27.06. 18:10 97% -
Mo, 27.06. 18:00 95% 9 km
Mo, 27.06. 17:30 94% 30 km
Mo, 27.06. 17:00 95% 17 km
Mo, 27.06. 16:30 96% 4.6 km
Mo, 27.06. 16:00 95% 35 km
Ortszeit Niederschlagsmenge Niederschlagsart
Mo, 27.06. 14:00 0.1 l/m2 in 6 Std. Regen
Mo, 27.06. 8:00 12 l/m2 in 12 Std. Regen
Mo, 27.06. 2:00 0.1 l/m2 in 6 Std. Regen
So, 26.06. 20:00 0.0 l/m2 in 12 Std. -
So, 26.06. 14:00 0.0 l/m2 in 6 Std. -
So, 26.06. 8:00 0.0 l/m2 in 12 Std. -
So, 26.06. 2:00 0.0 l/m2 in 6 Std. -
Sa, 25.06. 20:00 0.0 l/m2 in 12 Std. -
Ortszeit Niederschlagsmenge Niederschlagsart
Mo, 27.06. 19:00 1.2 l/m2 in 1 Std. Regen
Mo, 27.06. 18:50 keine Meldung -
Mo, 27.06. 18:40 keine Meldung -
Mo, 27.06. 18:30 0.4 l/m2 in 1 Std. -
Mo, 27.06. 18:20 keine Meldung -
Mo, 27.06. 18:10 keine Meldung -
Mo, 27.06. 18:00 0.4 l/m2 in 1 Std. Regen
Mo, 27.06. 17:30 0.1 l/m2 in 1 Std. -
Mo, 27.06. 17:00 0.1 l/m2 in 1 Std. Regen
Mo, 27.06. 16:30 0.1 l/m2 in 1 Std. Schnee
Mo, 27.06. 16:00 0.1 l/m2 in 1 Std. Sprühregen
Ortszeit Stärke Spitze Richtung
km/h Bft. km/h Grad Sektor
Mo, 27.06. 14:00 4 1 29 310° NW
Mo, 27.06. 8:00 14 3 29 360° N
Mo, 27.06. 2:00 13 3 20 360° N
So, 26.06. 20:00 13 3 31 360° N
So, 26.06. 14:00 24 4 37 280° W
So, 26.06. 8:00 7 2 18 150° SO
So, 26.06. 2:00 6 1 19 90° O
Sa, 25.06. 20:00 7 2 25 20° N
Ortszeit Stärke Spitze Richtung
km/h Bft. km/h Grad Sektor
Mo, 27.06. 19:00 14 3 29 340° N
Mo, 27.06. 18:50 14 3 - 340° N
Mo, 27.06. 18:40 18 3 - 320° NW
Mo, 27.06. 18:30 14 3 29 330° NW
Mo, 27.06. 18:20 14 3 - 330° NW
Mo, 27.06. 18:10 18 3 - 330° NW
Mo, 27.06. 18:00 18 3 29 330° NW
Mo, 27.06. 17:30 18 3 29 320° NW
Mo, 27.06. 17:00 24 4 35 330° NW
Mo, 27.06. 16:30 18 3 25 320° NW
Mo, 27.06. 16:00 18 3 29 320° NW
Ortszeit Untergrenze Bedeckung Gattung
total tief tief mittel hoch
Mo, 27.06. 14:00 240 m 8/8 8/8 - - -
Mo, 27.06. 8:00 510 m 8/8 8/8 - - -
Mo, 27.06. 2:00 1800 m 8/8 7/8 - - -
So, 26.06. 20:00 3300 m 8/8 8/8 - - -
So, 26.06. 14:00 360 m 5/8 4/8 - - -
So, 26.06. 8:00 8100 m 8/8 0/8 - - -
So, 26.06. 2:00 2100 m 7/8 1/8 - - -
Sa, 25.06. 20:00 2400 m 7/8 4/8 - - -
Ortszeit Bedeckungsgrad in Achtel und Wolkenuntergrenze
Mo, 27.06. 19:00 2(210m) 4(1110m) 7(1500m)
Mo, 27.06. 18:50 2(210m) 4(1110m) 7(1500m)
Mo, 27.06. 18:40 8
Mo, 27.06. 18:30 1(150m) 6(1230m) 8(1500m)
Mo, 27.06. 18:20 1(150m) 6(1230m) 8(1500m)
Mo, 27.06. 18:10 7
Mo, 27.06. 18:00 3(240m) 7(1260m) 8(1800m)
Mo, 27.06. 17:30 4(240m) 7(570m) 8(900m)
Mo, 27.06. 17:00 3(180m) 8(450m)
Mo, 27.06. 16:30 5(180m) 5(360m) 8(480m)
Mo, 27.06. 16:00 2(180m) 8(450m)
Ortszeit Luftdruck NN (hPa) Tendenz (hPa in 3 Std.)
Mo, 27.06. 14:00 1015 + 0,4
Mo, 27.06. 8:00 1016 + 0,1
Mo, 27.06. 2:00 1015 - 1,6
So, 26.06. 20:00 1017 + 0,2
So, 26.06. 14:00 1016 + 2,1
So, 26.06. 8:00 1012 + 0,1
So, 26.06. 2:00 1013 - 0,1
Sa, 25.06. 20:00 1012 0,0
Ortszeit Luftdruck NN (hPa) Tendenz (hPa in 3 Std.)
Mo, 27.06. 19:00 1017 + 1,1
Mo, 27.06. 18:50 1017 keine Meldung
Mo, 27.06. 18:40 1017 keine Meldung
Mo, 27.06. 18:30 1017 + 1,4
Mo, 27.06. 18:20 1017 keine Meldung
Mo, 27.06. 18:10 1016 keine Meldung
Mo, 27.06. 18:00 1016 + 0,9
Mo, 27.06. 17:30 1016 + 0,8
Mo, 27.06. 17:00 1016 + 0,7
Mo, 27.06. 16:30 1016 + 0,7
Mo, 27.06. 16:00 1016 + 0,5
Ortszeit Schneehöhe (cm)
Mo, 27.06. 14:00 0
Mo, 27.06. 8:00 0
Mo, 27.06. 2:00 0
So, 26.06. 20:00 0
So, 26.06. 14:00 0
So, 26.06. 8:00 0
So, 26.06. 2:00 0
Sa, 25.06. 20:00 0
Ortszeit Schneehöhe (cm)
Mo, 27.06. 19:00 0
Mo, 27.06. 18:50 0
Mo, 27.06. 18:40 0
Mo, 27.06. 18:30 0
Mo, 27.06. 18:20 0
Mo, 27.06. 18:10 0
Mo, 27.06. 18:00 0
Mo, 27.06. 17:30 0
Mo, 27.06. 17:00 0
Mo, 27.06. 16:30 0
Mo, 27.06. 16:00 0
Link zu dieser Seite / Seite empfehlen

Das Wetter in ...